Time;durP1;ratioP1;P1;durP2;ratioP2;P2;SDS_P1;SDS_P2;PMS_P1;PMS_P2;Temp;Humidity;BMP_temperature;BMP_pressure;BME280_temperature;BME280_humidity;BME280_pressure;Samples;Min_cycle;Max_cycle;Signal;HPM_P1;HPM_P2
2024/02/24 00:00:51;;;;;;;37.17;16.07;;;10.00;99.90;;;;;;5010243;28;20198;-68
2024/02/24 00:03:18;;;;;;;39.60;17.47;;;10.00;99.90;;;;;;5012365;28;20302;-67
2024/02/24 00:05:45;;;;;;;40.00;16.37;;;10.00;99.90;;;;;;5011724;28;21037;-67
2024/02/24 00:08:12;;;;;;;40.83;17.47;;;10.00;99.90;;;;;;5011539;28;20600;-67
2024/02/24 00:10:39;;;;;;;33.50;14.63;;;10.10;99.90;;;;;;5013204;28;20710;-67
2024/02/24 00:13:08;;;;;;;37.33;16.07;;;10.00;99.90;;;;;;5001754;28;20199;-67
2024/02/24 00:15:36;;;;;;;29.13;13.97;;;10.00;99.90;;;;;;5015611;28;20192;-68
2024/02/24 00:18:04;;;;;;;31.50;13.43;;;9.90;99.90;;;;;;5011676;28;20214;-68
2024/02/24 00:20:31;;;;;;;28.87;12.60;;;9.90;99.90;;;;;;5010552;28;20687;-66
2024/02/24 00:22:58;;;;;;;27.23;12.57;;;9.90;99.90;;;;;;5015753;28;20204;-67
2024/02/24 00:25:25;;;;;;;29.00;13.43;;;10.00;99.90;;;;;;5012513;28;20203;-67
2024/02/24 00:27:52;;;;;;;29.00;12.97;;;10.00;99.90;;;;;;5010541;28;20249;-67
2024/02/24 00:30:21;;;;;;;25.93;11.53;;;9.90;99.90;;;;;;5011084;28;20674;-67
2024/02/24 00:32:48;;;;;;;24.47;12.03;;;9.90;99.90;;;;;;5019691;28;20946;-67
2024/02/24 00:35:16;;;;;;;20.30;10.40;;;9.90;99.90;;;;;;5016823;28;20552;-66
2024/02/24 00:37:43;;;;;;;24.67;11.60;;;9.90;99.90;;;;;;5010639;28;20877;-66
2024/02/24 00:40:11;;;;;;;30.37;13.30;;;9.90;99.90;;;;;;4992876;28;20205;-66
2024/02/24 00:42:38;;;;;;;25.23;11.80;;;9.90;99.90;;;;;;5014170;28;20299;-67
2024/02/24 00:45:07;;;;;;;24.77;10.53;;;9.90;99.90;;;;;;5006947;28;20565;-67
2024/02/24 00:47:35;;;;;;;27.10;12.93;;;9.90;99.90;;;;;;5008411;28;20286;-68
2024/02/24 00:50:02;;;;;;;26.10;12.03;;;9.80;99.90;;;;;;5010197;28;20267;-67
2024/02/24 00:52:29;;;;;;;24.37;11.13;;;9.90;99.90;;;;;;5011358;28;20289;-67
2024/02/24 00:54:56;;;;;;;21.23;10.83;;;9.90;99.90;;;;;;5017291;28;20619;-68
2024/02/24 00:57:24;;;;;;;26.50;12.17;;;9.90;99.90;;;;;;5012692;28;20226;-68
2024/02/24 00:59:51;;;;;;;21.60;10.20;;;9.90;99.90;;;;;;5012449;28;20202;-67
2024/02/24 01:02:18;;;;;;;22.20;10.97;;;9.90;99.90;;;;;;5015659;28;20264;-67
2024/02/24 01:04:48;;;;;;;21.60;11.07;;;9.90;99.90;;;;;;5024129;28;20476;-67
2024/02/24 01:07:15;;;;;;;19.33;9.90;;;9.90;99.90;;;;;;5007158;28;20191;-67
2024/02/24 01:09:43;;;;;;;20.80;9.27;;;9.90;99.90;;;;;;5016236;28;20211;-67
2024/02/24 01:12:10;;;;;;;20.17;9.63;;;9.90;99.90;;;;;;5010383;28;20646;-66
2024/02/24 01:14:37;;;;;;;20.07;9.60;;;9.90;99.90;;;;;;5015172;28;20192;-67
2024/02/24 01:17:04;;;;;;;21.10;10.30;;;9.80;99.90;;;;;;5001558;28;20200;-67
2024/02/24 01:19:32;;;;;;;21.70;10.37;;;9.80;99.90;;;;;;5011012;28;20194;-66
2024/02/24 01:22:00;;;;;;;19.87;9.93;;;9.90;99.90;;;;;;5010025;28;20214;-67
2024/02/24 01:24:27;;;;;;;17.77;8.47;;;9.80;99.90;;;;;;5012052;28;20199;-66
2024/02/24 01:26:54;;;;;;;19.33;9.10;;;9.80;99.90;;;;;;5008151;28;20305;-66
2024/02/24 01:29:21;;;;;;;16.20;8.43;;;9.80;99.90;;;;;;5010393;28;20646;-66
2024/02/24 01:31:48;;;;;;;13.40;7.60;;;9.80;99.90;;;;;;5006580;28;20304;-66
2024/02/24 01:34:15;;;;;;;12.83;6.90;;;9.80;99.90;;;;;;5010233;28;20252;-66
2024/02/24 01:36:42;;;;;;;15.97;7.47;;;9.80;99.90;;;;;;5001320;28;20298;-67
2024/02/24 01:39:11;;;;;;;13.93;7.20;;;9.80;99.90;;;;;;5009659;28;20191;-66
2024/02/24 01:41:38;;;;;;;16.07;7.47;;;9.80;99.90;;;;;;5013152;28;20195;-68
2024/02/24 01:44:05;;;;;;;18.53;8.70;;;9.80;99.90;;;;;;5009742;28;20202;-67
2024/02/24 01:46:32;;;;;;;16.07;8.03;;;9.80;99.90;;;;;;5014426;28;20195;-67
2024/02/24 01:48:59;;;;;;;15.30;7.67;;;9.90;99.90;;;;;;5008333;28;20205;-67
2024/02/24 01:51:26;;;;;;;12.53;6.83;;;9.80;99.90;;;;;;4994221;28;20227;-66
2024/02/24 01:53:54;;;;;;;13.30;7.10;;;9.80;99.90;;;;;;5020143;28;20191;-67
2024/02/24 01:56:24;;;;;;;11.40;6.50;;;9.70;99.90;;;;;;5010208;28;20719;-67
2024/02/24 01:58:52;;;;;;;9.97;5.90;;;9.80;99.90;;;;;;5019670;28;20284;-67
2024/02/24 02:01:19;;;;;;;9.67;6.27;;;9.80;99.90;;;;;;5009654;28;20683;-67
2024/02/24 02:03:46;;;;;;;11.43;6.43;;;9.80;99.90;;;;;;4995604;28;20208;-67
2024/02/24 02:06:13;;;;;;;10.30;5.87;;;9.80;99.90;;;;;;5016034;28;20257;-67
2024/02/24 02:08:40;;;;;;;8.87;5.83;;;9.90;99.90;;;;;;5009506;28;20199;-67
2024/02/24 02:11:10;;;;;;;9.07;5.20;;;9.90;99.90;;;;;;5010515;28;20223;-67
2024/02/24 02:13:39;;;;;;;9.30;4.93;;;9.90;99.90;;;;;;5009070;28;20201;-67
2024/02/24 02:16:07;;;;;;;8.87;5.47;;;9.90;99.90;;;;;;5012338;28;20199;-67
2024/02/24 02:18:34;;;;;;;10.03;5.80;;;10.00;99.90;;;;;;5009661;28;20213;-66
2024/02/24 02:21:01;;;;;;;11.17;5.90;;;9.90;99.90;;;;;;5015232;28;20313;-66
2024/02/24 02:23:30;;;;;;;9.87;5.80;;;10.00;99.90;;;;;;4999612;28;20249;-67
2024/02/24 02:25:57;;;;;;;8.53;4.73;;;10.00;99.90;;;;;;5010315;28;20195;-67
2024/02/24 02:28:24;;;;;;;10.17;6.17;;;10.00;99.90;;;;;;4995143;28;20311;-67
2024/02/24 02:30:52;;;;;;;11.40;6.70;;;10.00;99.90;;;;;;5015589;28;20215;-67
2024/02/24 02:33:19;;;;;;;9.77;5.80;;;10.00;99.90;;;;;;5009779;28;20610;-66
2024/02/24 02:35:46;;;;;;;9.80;5.90;;;10.00;99.90;;;;;;5012640;28;20204;-67
2024/02/24 02:38:13;;;;;;;6.83;4.60;;;10.00;99.90;;;;;;4990352;28;20208;-67
2024/02/24 02:40:41;;;;;;;10.10;4.90;;;10.00;99.90;;;;;;5011356;28;20197;-66
2024/02/24 02:43:08;;;;;;;7.13;4.50;;;10.00;99.90;;;;;;5007981;28;20197;-67
2024/02/24 02:45:35;;;;;;;7.73;4.83;;;9.90;99.90;;;;;;5012487;28;20579;-67
2024/02/24 02:48:03;;;;;;;9.70;5.20;;;9.90;99.90;;;;;;4989215;28;20288;-67
2024/02/24 02:50:30;;;;;;;9.50;5.43;;;9.90;99.90;;;;;;5012268;28;20235;-67
2024/02/24 02:52:57;;;;;;;8.53;4.80;;;10.00;99.90;;;;;;5016012;28;20215;-66
2024/02/24 02:55:24;;;;;;;6.70;4.70;;;10.00;99.90;;;;;;5014464;28;20439;-66
2024/02/24 02:57:52;;;;;;;6.80;4.10;;;10.00;99.90;;;;;;5021863;28;20256;-67
2024/02/24 03:00:20;;;;;;;9.03;4.87;;;10.00;99.90;;;;;;5012678;28;20198;-66
2024/02/24 03:02:47;;;;;;;6.57;3.97;;;10.00;99.90;;;;;;5013447;28;20226;-66
2024/02/24 03:05:14;;;;;;;6.73;4.13;;;10.00;99.90;;;;;;5011897;28;21056;-66
2024/02/24 03:07:41;;;;;;;4.80;3.50;;;10.00;99.90;;;;;;5005774;28;20266;-66
2024/02/24 03:10:09;;;;;;;5.83;3.93;;;9.90;99.90;;;;;;5020098;28;20221;-66
2024/02/24 03:12:36;;;;;;;6.77;4.73;;;9.90;99.90;;;;;;5011933;28;20661;-66
2024/02/24 03:15:05;;;;;;;7.83;4.87;;;9.90;99.90;;;;;;5012274;28;20221;-66
2024/02/24 03:17:32;;;;;;;8.53;5.03;;;10.00;99.90;;;;;;5007360;28;20258;-66
2024/02/24 03:19:59;;;;;;;6.33;4.43;;;10.00;99.90;;;;;;5011615;28;20279;-66
2024/02/24 03:22:28;;;;;;;6.50;4.23;;;10.00;99.90;;;;;;5007885;28;20221;-66
2024/02/24 03:24:55;;;;;;;7.57;4.67;;;9.90;99.90;;;;;;5011779;28;20209;-65
2024/02/24 03:27:22;;;;;;;8.47;5.30;;;10.00;99.90;;;;;;5014277;28;20666;-65
2024/02/24 03:29:49;;;;;;;8.97;5.63;;;10.00;99.90;;;;;;5012310;28;20203;-65
2024/02/24 03:32:17;;;;;;;9.57;5.20;;;9.90;99.90;;;;;;5004792;28;20310;-66
2024/02/24 03:34:45;;;;;;;8.67;4.97;;;10.00;99.90;;;;;;5020533;28;20689;-66
2024/02/24 03:37:12;;;;;;;8.97;5.40;;;10.00;99.90;;;;;;5004765;28;20590;-66
2024/02/24 03:39:39;;;;;;;8.97;5.57;;;9.90;99.90;;;;;;5020324;28;20675;-66
2024/02/24 03:42:06;;;;;;;8.37;5.00;;;10.00;99.90;;;;;;5020365;28;20257;-66
2024/02/24 03:44:33;;;;;;;7.57;4.70;;;9.90;99.90;;;;;;5012369;28;20288;-66
2024/02/24 03:47:00;;;;;;;6.40;4.60;;;9.90;99.90;;;;;;5013822;28;20222;-66
2024/02/24 03:49:28;;;;;;;10.80;5.80;;;9.90;99.90;;;;;;4993815;28;20285;-66
2024/02/24 03:51:55;;;;;;;8.03;5.30;;;9.80;99.90;;;;;;5017200;28;20292;-66
2024/02/24 03:54:24;;;;;;;9.80;5.67;;;9.80;99.90;;;;;;5012575;28;20210;-66
2024/02/24 03:56:51;;;;;;;11.17;6.83;;;9.80;99.90;;;;;;5012905;28;20226;-67
2024/02/24 03:59:18;;;;;;;13.13;6.90;;;9.80;99.90;;;;;;4994369;28;20210;-67
2024/02/24 04:01:46;;;;;;;9.17;5.77;;;9.90;99.90;;;;;;5011723;28;20198;-66
2024/02/24 04:04:13;;;;;;;9.07;5.67;;;9.90;99.90;;;;;;5004609;28;20196;-66
2024/02/24 04:06:45;;;;;;;5.17;4.00;;;9.90;99.90;;;;;;5009655;28;20246;-66
2024/02/24 04:09:13;;;;;;;6.90;4.80;;;9.80;99.90;;;;;;5009754;28;20253;-66
2024/02/24 04:11:40;;;;;;;12.17;6.60;;;9.80;99.90;;;;;;5014578;28;20216;-66
2024/02/24 04:14:07;;;;;;;11.90;6.50;;;9.80;99.90;;;;;;5017034;28;20548;-67
2024/02/24 04:16:34;;;;;;;10.00;5.93;;;9.80;99.90;;;;;;5012242;28;20218;-65
2024/02/24 04:19:01;;;;;;;12.03;7.13;;;9.90;99.90;;;;;;5011031;28;20206;-66
2024/02/24 04:21:28;;;;;;;12.67;7.80;;;9.80;99.90;;;;;;5010589;28;20205;-66
2024/02/24 04:23:57;;;;;;;15.53;8.40;;;9.80;99.90;;;;;;5011193;28;20191;-65
2024/02/24 04:26:24;;;;;;;14.87;7.87;;;9.80;99.90;;;;;;5010323;28;20192;-66
2024/02/24 04:28:51;;;;;;;15.57;8.87;;;9.80;99.90;;;;;;5020282;28;20607;-66
2024/02/24 04:31:18;;;;;;;12.50;7.60;;;9.70;99.90;;;;;;5011225;28;20299;-66
2024/02/24 04:33:45;;;;;;;12.17;7.73;;;9.70;99.90;;;;;;5011408;28;20204;-66
2024/02/24 04:36:12;;;;;;;12.67;7.77;;;9.70;99.90;;;;;;5009424;28;20362;-66
2024/02/24 04:38:39;;;;;;;10.10;5.90;;;9.70;99.90;;;;;;5013003;28;20209;-66
2024/02/24 04:41:07;;;;;;;10.30;5.93;;;9.70;99.90;;;;;;5011409;28;20194;-66
2024/02/24 04:43:34;;;;;;;10.13;6.23;;;9.70;99.90;;;;;;5012118;28;20195;-67
2024/02/24 04:46:01;;;;;;;8.33;5.63;;;9.70;99.90;;;;;;5018647;28;20847;-66
2024/02/24 04:48:28;;;;;;;11.10;5.60;;;9.70;99.90;;;;;;5007618;28;20194;-66
2024/02/24 04:50:55;;;;;;;7.43;5.20;;;9.70;99.90;;;;;;5007705;28;20213;-66
2024/02/24 04:53:23;;;;;;;9.73;5.63;;;9.60;99.90;;;;;;5011318;28;20232;-66
2024/02/24 04:55:50;;;;;;;6.57;4.80;;;9.60;99.90;;;;;;5010753;28;20230;-66
2024/02/24 04:58:18;;;;;;;6.23;4.10;;;9.60;99.90;;;;;;5010037;28;20301;-66
2024/02/24 05:00:46;;;;;;;4.67;3.40;;;9.60;99.90;;;;;;5005697;28;20265;-66
2024/02/24 05:03:13;;;;;;;8.80;4.20;;;9.60;99.90;;;;;;5017508;28;20285;-66
2024/02/24 05:05:41;;;;;;;6.87;4.30;;;9.60;99.90;;;;;;5010384;28;20227;-66
2024/02/24 05:08:08;;;;;;;3.83;3.17;;;9.60;99.90;;;;;;5010248;28;20281;-66
2024/02/24 05:10:35;;;;;;;9.43;4.40;;;9.60;99.90;;;;;;5014449;28;20201;-66
2024/02/24 05:13:02;;;;;;;7.10;4.23;;;9.60;99.90;;;;;;5010926;28;20215;-66
2024/02/24 05:15:30;;;;;;;7.90;5.00;;;9.50;99.90;;;;;;4992184;28;20562;-66
2024/02/24 05:17:57;;;;;;;4.93;4.20;;;9.60;99.90;;;;;;4989558;28;20617;-66
2024/02/24 05:20:24;;;;;;;4.87;3.30;;;9.50;99.90;;;;;;5009316;28;20246;-66
2024/02/24 05:22:51;;;;;;;4.10;3.63;;;9.50;99.90;;;;;;5017867;28;20627;-66
2024/02/24 05:25:18;;;;;;;4.27;3.47;;;9.50;99.90;;;;;;5009947;28;20201;-66
2024/02/24 05:27:46;;;;;;;3.60;3.30;;;9.50;99.90;;;;;;5008223;28;20205;-65
2024/02/24 05:30:13;;;;;;;6.07;4.20;;;9.50;99.90;;;;;;5006570;28;20282;-66
2024/02/24 05:32:41;;;;;;;6.50;4.60;;;9.50;99.90;;;;;;5018824;28;20209;-66
2024/02/24 05:35:09;;;;;;;5.00;3.80;;;9.50;99.90;;;;;;5006021;28;20204;-66
2024/02/24 05:37:36;;;;;;;5.47;3.87;;;9.50;99.90;;;;;;5008800;28;20647;-65
2024/02/24 05:40:04;;;;;;;6.57;4.40;;;9.60;99.90;;;;;;5000075;28;20233;-66
2024/02/24 05:42:31;;;;;;;5.47;4.07;;;9.50;99.90;;;;;;5010182;28;20201;-66
2024/02/24 05:44:58;;;;;;;3.77;3.27;;;9.50;99.90;;;;;;5009243;28;20214;-66
2024/02/24 05:47:25;;;;;;;3.80;3.40;;;9.50;99.90;;;;;;5011241;28;20256;-66
2024/02/24 05:49:54;;;;;;;3.83;3.40;;;9.50;99.90;;;;;;5007383;28;20306;-66
2024/02/24 05:52:21;;;;;;;4.70;3.40;;;9.50;99.90;;;;;;5010560;28;20205;-66
2024/02/24 05:54:48;;;;;;;3.67;3.37;;;9.40;99.90;;;;;;5016126;28;20199;-67
2024/02/24 05:57:15;;;;;;;3.40;2.70;;;9.50;99.90;;;;;;5009460;28;20273;-66
2024/02/24 05:59:42;;;;;;;4.37;3.63;;;9.50;99.90;;;;;;5009134;28;20202;-66
2024/02/24 06:02:09;;;;;;;5.60;3.80;;;9.50;99.90;;;;;;5010271;28;20245;-66
2024/02/24 06:04:38;;;;;;;5.30;3.70;;;9.50;99.90;;;;;;5009010;28;20298;-66
2024/02/24 06:07:06;;;;;;;5.97;4.43;;;9.50;99.90;;;;;;5004560;28;20223;-66
2024/02/24 06:09:33;;;;;;;7.00;4.70;;;9.50;99.90;;;;;;5009667;28;20249;-66
2024/02/24 06:12:00;;;;;;;4.63;3.50;;;9.50;99.90;;;;;;5000917;28;20744;-66
2024/02/24 06:14:27;;;;;;;4.17;3.27;;;9.50;99.90;;;;;;5009635;28;20573;-66
2024/02/24 06:16:54;;;;;;;3.37;2.73;;;9.50;99.90;;;;;;5019895;28;20225;-65
2024/02/24 06:19:21;;;;;;;3.80;2.63;;;9.40;99.90;;;;;;5011599;28;20202;-66
2024/02/24 06:21:49;;;;;;;2.37;2.20;;;9.40;99.90;;;;;;5005715;28;20197;-65
2024/02/24 06:24:17;;;;;;;2.53;2.23;;;9.40;99.90;;;;;;5006256;28;20228;-66
2024/02/24 06:26:44;;;;;;;2.47;2.27;;;9.40;99.90;;;;;;5007114;28;20252;-66
2024/02/24 06:29:15;;;;;;;3.47;3.10;;;9.40;99.90;;;;;;5014737;28;20293;-66
2024/02/24 06:31:42;;;;;;;6.17;3.40;;;9.40;99.90;;;;;;5013311;28;20226;-66
2024/02/24 06:34:09;;;;;;;7.03;3.10;;;9.40;99.90;;;;;;5020530;28;20244;-66
2024/02/24 06:36:37;;;;;;;5.03;2.87;;;9.40;99.90;;;;;;5011375;28;20222;-66
2024/02/24 06:39:04;;;;;;;3.20;2.77;;;9.40;99.90;;;;;;5017570;28;20315;-67
2024/02/24 06:41:32;;;;;;;2.40;2.20;;;9.30;99.90;;;;;;5016733;28;20264;-66
2024/02/24 06:43:59;;;;;;;2.40;2.10;;;9.20;99.90;;;;;;5017436;28;20202;-66
2024/02/24 06:46:26;;;;;;;2.73;2.20;;;9.20;99.90;;;;;;4990936;28;20624;-66
2024/02/24 06:48:53;;;;;;;2.20;2.10;;;9.20;99.90;;;;;;5018397;28;20279;-67
2024/02/24 06:51:21;;;;;;;2.20;2.00;;;9.20;99.90;;;;;;5012927;28;20199;-66
2024/02/24 06:53:48;;;;;;;1.80;1.70;;;9.20;99.90;;;;;;5013223;28;20204;-67
2024/02/24 06:56:15;;;;;;;1.77;1.67;;;9.20;99.90;;;;;;5012520;28;20201;-66
2024/02/24 06:58:43;;;;;;;2.10;1.90;;;9.10;99.90;;;;;;5018227;28;20543;-66
2024/02/24 07:01:11;;;;;;;1.70;1.60;;;9.20;99.90;;;;;;5014226;28;20670;-66
2024/02/24 07:03:38;;;;;;;2.77;2.03;;;9.20;99.90;;;;;;5013950;28;20565;-66
2024/02/24 07:06:05;;;;;;;1.50;1.40;;;9.20;99.90;;;;;;5012148;28;20262;-65
2024/02/24 07:08:32;;;;;;;1.57;1.47;;;9.10;99.90;;;;;;5015572;28;20202;-67
2024/02/24 07:10:59;;;;;;;1.17;1.17;;;9.10;99.90;;;;;;5012752;28;20648;-67
2024/02/24 07:13:26;;;;;;;1.63;1.50;;;9.10;99.90;;;;;;5011520;28;20217;-66
2024/02/24 07:15:55;;;;;;;1.70;1.60;;;9.10;99.90;;;;;;5014592;28;20220;-66
2024/02/24 07:18:22;;;;;;;1.87;1.77;;;9.10;99.90;;;;;;5013578;28;20671;-66
2024/02/24 07:20:50;;;;;;;2.20;2.00;;;9.10;99.90;;;;;;5012352;28;20281;-66
2024/02/24 07:23:17;;;;;;;2.90;2.50;;;9.10;99.90;;;;;;5002632;28;20212;-66
2024/02/24 07:25:44;;;;;;;3.27;2.57;;;9.10;99.90;;;;;;5010414;28;20210;-66
2024/02/24 07:28:11;;;;;;;3.40;2.30;;;9.10;99.90;;;;;;4993284;28;20210;-66
2024/02/24 07:30:38;;;;;;;2.33;2.13;;;9.20;99.90;;;;;;4995393;28;20658;-66
2024/02/24 07:33:06;;;;;;;4.10;2.27;;;9.20;99.90;;;;;;5012019;28;20212;-66
2024/02/24 07:35:33;;;;;;;3.37;2.40;;;9.20;99.90;;;;;;5012996;28;20293;-66
2024/02/24 07:38:00;;;;;;;2.67;1.83;;;9.20;99.90;;;;;;5012935;28;20275;-66
2024/02/24 07:40:28;;;;;;;3.33;1.67;;;9.20;99.90;;;;;;5021992;28;20282;-66
2024/02/24 07:42:55;;;;;;;1.60;1.47;;;9.20;99.90;;;;;;5011365;28;20202;-65
2024/02/24 07:45:22;;;;;;;1.80;1.43;;;9.20;99.90;;;;;;5021794;28;20211;-66
2024/02/24 07:47:50;;;;;;;1.20;1.20;;;9.10;99.90;;;;;;5019669;28;20218;-66
2024/02/24 07:50:18;;;;;;;2.07;1.77;;;9.10;99.90;;;;;;5019218;28;20289;-66
2024/02/24 07:52:46;;;;;;;1.63;1.53;;;9.10;99.90;;;;;;5015382;28;20218;-66
2024/02/24 07:55:13;;;;;;;2.63;1.90;;;9.20;99.90;;;;;;5013989;28;20281;-66
2024/02/24 07:57:40;;;;;;;2.17;1.83;;;9.20;99.90;;;;;;5011155;28;20288;-66
2024/02/24 08:00:08;;;;;;;1.80;1.70;;;9.20;99.90;;;;;;5011505;28;20218;-66
2024/02/24 08:02:36;;;;;;;2.53;1.80;;;9.20;99.90;;;;;;5009383;28;20241;-66
2024/02/24 08:05:03;;;;;;;1.53;1.30;;;9.10;99.90;;;;;;5016670;28;20718;-66
2024/02/24 08:07:33;;;;;;;1.20;1.10;;;9.10;99.90;;;;;;5011234;28;20199;-66
2024/02/24 08:10:00;;;;;;;1.17;1.17;;;9.10;99.90;;;;;;5022218;28;20671;-66
2024/02/24 08:12:27;;;;;;;1.30;1.20;;;9.10;99.90;;;;;;5011176;28;20230;-66
2024/02/24 08:14:54;;;;;;;1.40;1.40;;;9.10;99.90;;;;;;5020564;28;20251;-66
2024/02/24 08:17:21;;;;;;;1.50;1.40;;;9.10;99.90;;;;;;4999105;28;20196;-66
2024/02/24 08:19:48;;;;;;;1.80;1.70;;;9.10;99.90;;;;;;5019299;28;20608;-66
2024/02/24 08:22:15;;;;;;;2.67;1.97;;;9.10;99.90;;;;;;5009165;28;20555;-65
2024/02/24 08:24:44;;;;;;;2.90;2.00;;;9.10;99.90;;;;;;5017419;28;20205;-65
2024/02/24 08:27:11;;;;;;;1.77;1.67;;;9.10;99.90;;;;;;5012516;28;20198;-65
2024/02/24 08:29:38;;;;;;;1.43;1.33;;;9.10;99.90;;;;;;5010030;28;20207;-66
2024/02/24 08:32:06;;;;;;;2.57;1.70;;;9.10;99.90;;;;;;5014097;28;20745;-66
2024/02/24 08:34:33;;;;;;;2.03;1.60;;;9.10;99.90;;;;;;5018674;28;20197;-66
2024/02/24 08:37:00;;;;;;;2.10;1.90;;;9.10;99.90;;;;;;5012219;28;20256;-66
2024/02/24 08:39:27;;;;;;;1.80;1.70;;;9.10;99.90;;;;;;5018406;28;20198;-67
2024/02/24 08:41:56;;;;;;;3.30;1.60;;;9.20;99.90;;;;;;5010452;28;20249;-67
2024/02/24 08:44:23;;;;;;;3.67;1.40;;;9.10;99.90;;;;;;5011956;28;20198;-66
2024/02/24 08:46:50;;;;;;;1.40;1.30;;;9.10;99.90;;;;;;5010692;28;20206;-66
2024/02/24 08:49:17;;;;;;;3.53;1.10;;;9.10;99.90;;;;;;5011057;28;20233;-67
2024/02/24 08:51:44;;;;;;;1.23;1.17;;;9.10;99.90;;;;;;5011380;28;20206;-66
2024/02/24 08:54:11;;;;;;;2.30;1.10;;;9.00;99.90;;;;;;5008309;28;20253;-66
2024/02/24 08:56:39;;;;;;;1.10;1.10;;;9.10;99.90;;;;;;5008002;28;20202;-67
2024/02/24 08:59:07;;;;;;;0.90;0.90;;;9.10;99.90;;;;;;4994293;28;20613;-66
2024/02/24 09:01:34;;;;;;;0.90;0.90;;;9.10;99.90;;;;;;5021460;28;20272;-66
2024/02/24 09:04:03;;;;;;;0.80;0.80;;;9.00;99.90;;;;;;5002514;28;20196;-67
2024/02/24 09:06:31;;;;;;;1.60;1.00;;;9.00;99.90;;;;;;5012250;28;20237;-67
2024/02/24 09:08:59;;;;;;;0.90;0.73;;;9.00;99.90;;;;;;5007252;28;20211;-66
2024/02/24 09:11:26;;;;;;;1.23;0.90;;;9.10;99.90;;;;;;5005707;28;20205;-66
2024/02/24 09:13:53;;;;;;;0.80;0.80;;;9.00;99.90;;;;;;5002659;28;20210;-67
2024/02/24 09:16:22;;;;;;;0.70;0.70;;;9.00;99.90;;;;;;5010185;28;20775;-66
2024/02/24 09:18:49;;;;;;;0.80;0.80;;;9.00;99.90;;;;;;5007025;28;20266;-66
2024/02/24 09:21:16;;;;;;;0.67;0.67;;;9.00;99.90;;;;;;4993345;28;20620;-67
2024/02/24 09:23:43;;;;;;;0.80;0.80;;;8.90;99.90;;;;;;5008831;28;20558;-66
2024/02/24 09:26:10;;;;;;;0.80;0.80;;;8.90;99.90;;;;;;5011546;28;20273;-66
2024/02/24 09:28:37;;;;;;;0.80;0.80;;;8.90;99.90;;;;;;5008933;28;20200;-66
2024/02/24 09:31:04;;;;;;;0.70;0.70;;;8.90;99.90;;;;;;5003028;28;20202;-67
2024/02/24 09:33:33;;;;;;;0.80;0.80;;;8.80;99.90;;;;;;5010605;28;20269;-67
2024/02/24 09:36:00;;;;;;;1.03;0.77;;;8.70;99.90;;;;;;5006058;28;20655;-67
2024/02/24 09:38:27;;;;;;;0.80;0.80;;;8.70;99.90;;;;;;5009303;28;20281;-66
2024/02/24 09:40:54;;;;;;;1.23;1.13;;;8.70;99.90;;;;;;5006939;28;20332;-66
2024/02/24 09:43:22;;;;;;;0.97;0.90;;;8.70;99.90;;;;;;5009838;28;20311;-67
2024/02/24 09:45:49;;;;;;;1.17;0.80;;;8.70;99.90;;;;;;5011171;28;20719;-67
2024/02/24 09:48:17;;;;;;;1.10;0.80;;;8.60;99.90;;;;;;5008407;28;20622;-67
2024/02/24 09:50:46;;;;;;;0.87;0.87;;;8.50;99.90;;;;;;5007535;28;20249;-67
2024/02/24 09:53:13;;;;;;;1.10;1.00;;;8.50;99.90;;;;;;5009720;28;20425;-66
2024/02/24 09:55:43;;;;;;;2.00;1.53;;;8.40;99.90;;;;;;5005845;28;20553;-66
2024/02/24 09:58:12;;;;;;;1.27;1.17;;;8.40;99.90;;;;;;5015176;28;20292;-67
2024/02/24 10:00:39;;;;;;;1.50;1.40;;;8.30;99.90;;;;;;5011118;28;20277;-66
2024/02/24 10:03:10;;;;;;;0.83;0.83;;;8.40;99.90;;;;;;4993664;28;20244;-67
2024/02/24 10:05:39;;;;;;;1.20;1.10;;;8.40;99.90;;;;;;5007487;28;20240;-67
2024/02/24 10:08:10;;;;;;;1.20;1.10;;;8.40;99.90;;;;;;5007722;28;20632;-67
2024/02/24 10:10:37;;;;;;;1.30;1.03;;;8.40;99.90;;;;;;5008605;28;20232;-66
2024/02/24 10:13:05;;;;;;;1.80;1.13;;;8.40;99.90;;;;;;5011034;28;20747;-67
2024/02/24 10:15:33;;;;;;;1.00;0.90;;;8.50;99.90;;;;;;5017301;28;20277;-66
2024/02/24 10:18:01;;;;;;;0.90;0.90;;;8.40;99.90;;;;;;5015306;28;20681;-67
2024/02/24 10:20:29;;;;;;;1.07;1.07;;;8.50;99.90;;;;;;5015803;28;20203;-67
2024/02/24 10:22:56;;;;;;;0.90;0.90;;;8.50;99.90;;;;;;5016168;28;20201;-67
2024/02/24 10:25:25;;;;;;;0.83;0.83;;;8.50;99.90;;;;;;5019964;28;20258;-67
2024/02/24 10:27:53;;;;;;;0.83;0.83;;;8.60;99.90;;;;;;5013847;28;20209;-67
2024/02/24 10:30:20;;;;;;;1.40;1.10;;;8.60;99.90;;;;;;5022198;28;20201;-66
2024/02/24 10:32:48;;;;;;;1.50;1.07;;;8.50;99.90;;;;;;5019029;28;20658;-67
2024/02/24 10:35:15;;;;;;;2.67;2.20;;;8.50;99.90;;;;;;5003306;28;20210;-67
2024/02/24 10:37:42;;;;;;;2.30;1.50;;;8.50;99.90;;;;;;5001267;28;20201;-67
2024/02/24 10:40:11;;;;;;;1.87;1.53;;;8.50;99.90;;;;;;5015885;28;20195;-66
2024/02/24 10:42:41;;;;;;;1.07;0.97;;;8.50;99.90;;;;;;5012725;28;20272;-67
2024/02/24 10:45:10;;;;;;;0.80;0.80;;;8.50;99.90;;;;;;5012568;28;20190;-67
2024/02/24 10:47:37;;;;;;;0.83;0.83;;;8.50;99.90;;;;;;5014273;28;20203;-67
2024/02/24 10:50:05;;;;;;;0.70;0.70;;;8.60;99.90;;;;;;5022102;28;20232;-67
2024/02/24 10:52:33;;;;;;;0.80;0.80;;;8.60;99.90;;;;;;5023155;28;20199;-67
2024/02/24 10:55:03;;;;;;;0.70;0.70;;;8.70;99.90;;;;;;5010853;28;20280;-67
2024/02/24 10:57:31;;;;;;;0.90;0.90;;;8.80;99.90;;;;;;5011972;28;20191;-67
2024/02/24 11:00:00;;;;;;;0.70;0.70;;;8.90;99.90;;;;;;5011320;28;20260;-66
2024/02/24 11:02:29;;;;;;;0.70;0.70;;;8.90;99.90;;;;;;5013327;28;20208;-67
2024/02/24 11:05:01;;;;;;;0.83;0.83;;;9.00;99.90;;;;;;5009756;28;20253;-67
2024/02/24 11:07:33;;;;;;;0.80;0.80;;;9.30;99.90;;;;;;4995284;28;20666;-67
2024/02/24 11:10:00;;;;;;;0.77;0.77;;;10.00;99.90;;;;;;5008621;28;20206;-66
2024/02/24 11:12:28;;;;;;;0.63;0.63;;;10.70;99.90;;;;;;5014266;28;20257;-67
2024/02/24 11:14:56;;;;;;;1.70;1.03;;;11.30;99.90;;;;;;4994369;28;20216;-67
2024/02/24 11:17:51;;;;;;;0.90;0.90;;;11.60;99.90;;;;;;5013428;28;20735;-67
2024/02/24 11:20:56;;;;;;;0.90;0.90;;;11.80;99.90;;;;;;5009574;28;20201;-67
2024/02/24 11:23:24;;;;;;;0.83;0.83;;;11.80;99.90;;;;;;5011498;28;20622;-66
2024/02/24 11:26:33;;;;;;;0.80;0.80;;;12.00;99.90;;;;;;5012681;28;20201;-67
2024/02/24 11:29:01;;;;;;;1.00;0.93;;;12.30;99.90;;;;;;5000291;28;20208;-67
2024/02/24 11:31:30;;;;;;;0.80;0.80;;;12.50;99.90;;;;;;5007251;28;20270;-67
2024/02/24 11:34:04;;;;;;;0.80;0.80;;;12.70;99.90;;;;;;5006854;28;20221;-67
2024/02/24 11:36:32;;;;;;;0.90;0.90;;;12.70;99.90;;;;;;5007054;28;20271;-68
2024/02/24 11:38:59;;;;;;;0.90;0.90;;;12.60;99.90;;;;;;5011071;28;20195;-66
2024/02/24 11:41:28;;;;;;;1.37;1.17;;;12.60;99.90;;;;;;5013000;28;20219;-66
2024/02/24 11:43:55;;;;;;;0.60;0.60;;;12.60;99.90;;;;;;5010073;28;20326;-66
2024/02/24 11:46:23;;;;;;;1.00;1.00;;;12.50;99.90;;;;;;4993153;28;20205;-66
2024/02/24 11:48:52;;;;;;;1.70;1.03;;;12.40;99.90;;;;;;5008843;28;20204;-65
2024/02/24 11:51:22;;;;;;;2.03;1.10;;;12.30;99.90;;;;;;5007326;28;20205;-66
2024/02/24 11:53:50;;;;;;;1.23;1.13;;;12.00;99.90;;;;;;5010756;28;20257;-67
2024/02/24 11:56:17;;;;;;;1.00;1.00;;;11.80;99.90;;;;;;5012580;28;20199;-66
2024/02/24 11:58:45;;;;;;;1.10;1.10;;;11.50;99.90;;;;;;5014648;28;20207;-67
2024/02/24 12:01:13;;;;;;;1.97;1.77;;;11.40;99.90;;;;;;5008879;28;20284;-67
2024/02/24 12:03:41;;;;;;;1.80;1.70;;;11.30;99.90;;;;;;5009357;28;20203;-66
2024/02/24 12:06:08;;;;;;;1.50;1.40;;;11.30;99.90;;;;;;5005992;28;20317;-66
2024/02/24 12:08:37;;;;;;;1.60;1.50;;;11.40;99.90;;;;;;5003887;28;20244;-67
2024/02/24 12:11:05;;;;;;;1.73;1.63;;;11.60;99.90;;;;;;5011760;28;20186;-67
2024/02/24 12:13:32;;;;;;;2.33;1.57;;;11.70;99.90;;;;;;5010216;28;20626;-66
2024/02/24 12:15:59;;;;;;;1.80;1.60;;;11.80;99.90;;;;;;5013142;28;20223;-67
2024/02/24 12:18:26;;;;;;;1.50;1.40;;;12.00;99.90;;;;;;5013026;28;20301;-67
2024/02/24 12:20:54;;;;;;;1.80;1.60;;;12.40;99.90;;;;;;5015639;28;20300;-66
2024/02/24 12:23:23;;;;;;;1.40;1.30;;;12.80;99.90;;;;;;5011729;28;20282;-66
2024/02/24 12:25:51;;;;;;;1.67;1.57;;;13.00;99.90;;;;;;5010415;28;20218;-67
2024/02/24 12:28:18;;;;;;;2.67;1.70;;;13.10;99.90;;;;;;5013328;28;20338;-66
2024/02/24 12:30:46;;;;;;;1.70;1.60;;;13.20;99.90;;;;;;5009265;28;20711;-66
2024/02/24 12:33:14;;;;;;;1.60;1.50;;;13.10;99.90;;;;;;5012769;28;20263;-67
2024/02/24 12:35:42;;;;;;;1.50;1.40;;;13.00;99.90;;;;;;5015049;28;20227;-66
2024/02/24 12:38:16;;;;;;;1.50;1.40;;;12.80;99.90;;;;;;5009965;28;20614;-66
2024/02/24 12:40:44;;;;;;;1.57;1.47;;;12.70;99.90;;;;;;5012767;28;20194;-66
2024/02/24 12:43:13;;;;;;;2.50;1.37;;;12.60;99.90;;;;;;5014861;28;20730;-65
2024/02/24 12:45:40;;;;;;;2.23;1.57;;;12.50;99.90;;;;;;5012322;28;20207;-66
2024/02/24 12:48:08;;;;;;;1.40;1.30;;;12.40;99.90;;;;;;5011030;28;20986;-66
2024/02/24 12:50:35;;;;;;;1.73;1.60;;;12.40;99.90;;;;;;5007917;28;20301;-66
2024/02/24 12:53:07;;;;;;;1.43;1.30;;;12.30;99.90;;;;;;5015495;28;20969;-67